Terminal Aerodrome Forecast
Issued by NWS

Home | Current Version | Previous Version | Text Only | Print | Product List | Glossary On
Versions: 1 2 3 4 5 6 7 8 9 10 11 12
000
FTUS42 TJSJ 172320
TAFKPK
TAF
TKPK 172320Z 1800/1824 06016KT P6SM SCT020 BKN040
      TEMPO 1800/1802 BKN020
     FM180300 05012KT P6SM VCSH FEW018 SCT035
     FM181450 07014KT P6SM SCT022
      AMD NOT SKED 1802/1811=

USA.gov is the U.S. government's official web portal to all federal, state and local government web resources and services.